sensor_id;sensor_type;location;lat;lon;timestamp;P1;durP1;ratioP1;P2;durP2;ratioP2
34491;SDS011;20737;49.908;8.126;2022-08-03T00:01:16;3.00;;;2.08;;
34491;SDS011;20737;49.908;8.126;2022-08-03T00:03:43;2.33;;;1.70;;
34491;SDS011;20737;49.908;8.126;2022-08-03T00:06:09;2.08;;;1.88;;
34491;SDS011;20737;49.908;8.126;2022-08-03T00:08:36;3.20;;;1.90;;
34491;SDS011;20737;49.908;8.126;2022-08-03T00:11:03;4.68;;;1.85;;
34491;SDS011;20737;49.908;8.126;2022-08-03T00:13:31;3.42;;;2.00;;
34491;SDS011;20737;49.908;8.126;2022-08-03T00:15:58;2.60;;;2.17;;
34491;SDS011;20737;49.908;8.126;2022-08-03T00:18:26;3.20;;;1.95;;
34491;SDS011;20737;49.908;8.126;2022-08-03T00:20:53;1.83;;;1.73;;
34491;SDS011;20737;49.908;8.126;2022-08-03T00:23:20;2.47;;;2.28;;
34491;SDS011;20737;49.908;8.126;2022-08-03T00:25:46;3.75;;;2.10;;
34491;SDS011;20737;49.908;8.126;2022-08-03T00:28:13;1.90;;;1.80;;
34491;SDS011;20737;49.908;8.126;2022-08-03T00:30:40;2.22;;;2.00;;
34491;SDS011;20737;49.908;8.126;2022-08-03T00:33:07;2.83;;;2.22;;
34491;SDS011;20737;49.908;8.126;2022-08-03T00:35:35;2.42;;;2.10;;
34491;SDS011;20737;49.908;8.126;2022-08-03T00:38:02;4.70;;;2.03;;
34491;SDS011;20737;49.908;8.126;2022-08-03T00:40:29;2.33;;;1.98;;
34491;SDS011;20737;49.908;8.126;2022-08-03T00:42:57;3.53;;;1.90;;
34491;SDS011;20737;49.908;8.126;2022-08-03T00:45:26;3.67;;;1.92;;
34491;SDS011;20737;49.908;8.126;2022-08-03T00:47:53;3.63;;;2.22;;
34491;SDS011;20737;49.908;8.126;2022-08-03T00:50:21;2.80;;;2.20;;
34491;SDS011;20737;49.908;8.126;2022-08-03T00:52:52;3.03;;;2.00;;
34491;SDS011;20737;49.908;8.126;2022-08-03T00:55:20;2.58;;;2.35;;
34491;SDS011;20737;49.908;8.126;2022-08-03T00:57:47;2.88;;;2.20;;
34491;SDS011;20737;49.908;8.126;2022-08-03T01:00:15;3.92;;;2.05;;
34491;SDS011;20737;49.908;8.126;2022-08-03T01:02:44;2.28;;;2.08;;
34491;SDS011;20737;49.908;8.126;2022-08-03T01:05:11;2.97;;;2.35;;
34491;SDS011;20737;49.908;8.126;2022-08-03T01:07:40;2.40;;;2.15;;
34491;SDS011;20737;49.908;8.126;2022-08-03T01:10:19;2.13;;;1.85;;
34491;SDS011;20737;49.908;8.126;2022-08-03T01:12:55;2.88;;;2.20;;
34491;SDS011;20737;49.908;8.126;2022-08-03T01:15:28;6.63;;;1.90;;
34491;SDS011;20737;49.908;8.126;2022-08-03T01:18:05;1.98;;;1.85;;
34491;SDS011;20737;49.908;8.126;2022-08-03T01:20:38;2.45;;;1.88;;
34491;SDS011;20737;49.908;8.126;2022-08-03T01:23:10;1.90;;;1.80;;
34491;SDS011;20737;49.908;8.126;2022-08-03T01:26:02;2.47;;;2.28;;
34491;SDS011;20737;49.908;8.126;2022-08-03T01:31:31;4.38;;;2.17;;
34491;SDS011;20737;49.908;8.126;2022-08-03T01:34:07;3.45;;;2.30;;
34491;SDS011;20737;49.908;8.126;2022-08-03T01:36:38;4.40;;;2.28;;
34491;SDS011;20737;49.908;8.126;2022-08-03T01:39:13;4.20;;;2.28;;
34491;SDS011;20737;49.908;8.126;2022-08-03T01:41:43;5.55;;;2.55;;
34491;SDS011;20737;49.908;8.126;2022-08-03T01:44:13;4.35;;;2.30;;
34491;SDS011;20737;49.908;8.126;2022-08-03T01:46:42;6.97;;;2.10;;
34491;SDS011;20737;49.908;8.126;2022-08-03T01:49:13;2.92;;;2.30;;
34491;SDS011;20737;49.908;8.126;2022-08-03T01:51:41;3.55;;;2.75;;
34491;SDS011;20737;49.908;8.126;2022-08-03T01:54:10;2.55;;;2.35;;
34491;SDS011;20737;49.908;8.126;2022-08-03T01:56:39;4.78;;;2.53;;
34491;SDS011;20737;49.908;8.126;2022-08-03T01:59:06;2.25;;;2.05;;
34491;SDS011;20737;49.908;8.126;2022-08-03T02:01:35;2.13;;;1.92;;
34491;SDS011;20737;49.908;8.126;2022-08-03T02:04:05;2.70;;;2.50;;
34491;SDS011;20737;49.908;8.126;2022-08-03T02:06:33;2.83;;;2.30;;
34491;SDS011;20737;49.908;8.126;2022-08-03T02:09:00;4.88;;;2.50;;
34491;SDS011;20737;49.908;8.126;2022-08-03T02:11:29;2.65;;;1.95;;
34491;SDS011;20737;49.908;8.126;2022-08-03T02:13:57;2.17;;;1.95;;
34491;SDS011;20737;49.908;8.126;2022-08-03T02:16:27;2.63;;;2.38;;
34491;SDS011;20737;49.908;8.126;2022-08-03T02:18:56;4.85;;;2.53;;
34491;SDS011;20737;49.908;8.126;2022-08-03T02:21:25;2.20;;;2.00;;
34491;SDS011;20737;49.908;8.126;2022-08-03T02:23:53;2.50;;;2.30;;
34491;SDS011;20737;49.908;8.126;2022-08-03T02:26:20;6.95;;;2.42;;
34491;SDS011;20737;49.908;8.126;2022-08-03T02:28:50;2.80;;;2.13;;
34491;SDS011;20737;49.908;8.126;2022-08-03T02:31:18;4.03;;;2.20;;
34491;SDS011;20737;49.908;8.126;2022-08-03T02:33:49;2.80;;;2.20;;
34491;SDS011;20737;49.908;8.126;2022-08-03T02:36:19;5.00;;;2.25;;
34491;SDS011;20737;49.908;8.126;2022-08-03T02:38:52;3.58;;;2.30;;
34491;SDS011;20737;49.908;8.126;2022-08-03T02:41:21;2.88;;;2.33;;
34491;SDS011;20737;49.908;8.126;2022-08-03T02:43:52;3.03;;;2.40;;
34491;SDS011;20737;49.908;8.126;2022-08-03T02:46:21;2.55;;;2.35;;
34491;SDS011;20737;49.908;8.126;2022-08-03T02:48:53;4.82;;;2.80;;
34491;SDS011;20737;49.908;8.126;2022-08-03T02:51:21;4.45;;;2.20;;
34491;SDS011;20737;49.908;8.126;2022-08-03T02:53:50;3.05;;;2.22;;
34491;SDS011;20737;49.908;8.126;2022-08-03T02:56:19;3.78;;;2.28;;
34491;SDS011;20737;49.908;8.126;2022-08-03T02:58:47;2.50;;;2.25;;
34491;SDS011;20737;49.908;8.126;2022-08-03T03:01:15;2.63;;;2.40;;
34491;SDS011;20737;49.908;8.126;2022-08-03T03:03:45;3.97;;;2.00;;
34491;SDS011;20737;49.908;8.126;2022-08-03T03:06:13;3.83;;;2.47;;
34491;SDS011;20737;49.908;8.126;2022-08-03T03:08:41;2.30;;;2.10;;
34491;SDS011;20737;49.908;8.126;2022-08-03T03:11:10;3.33;;;2.17;;
34491;SDS011;20737;49.908;8.126;2022-08-03T03:13:39;2.70;;;2.50;;
34491;SDS011;20737;49.908;8.126;2022-08-03T03:16:07;3.50;;;2.60;;
34491;SDS011;20737;49.908;8.126;2022-08-03T03:18:37;6.30;;;2.67;;
34491;SDS011;20737;49.908;8.126;2022-08-03T03:21:06;2.72;;;2.53;;
34491;SDS011;20737;49.908;8.126;2022-08-03T03:23:35;3.45;;;2.70;;
34491;SDS011;20737;49.908;8.126;2022-08-03T03:26:03;5.03;;;2.60;;
34491;SDS011;20737;49.908;8.126;2022-08-03T03:28:33;5.03;;;2.88;;
34491;SDS011;20737;49.908;8.126;2022-08-03T03:31:02;4.05;;;2.28;;
34491;SDS011;20737;49.908;8.126;2022-08-03T03:33:30;4.50;;;2.97;;
34491;SDS011;20737;49.908;8.126;2022-08-03T03:35:58;4.05;;;2.55;;
34491;SDS011;20737;49.908;8.126;2022-08-03T03:38:25;4.78;;;2.50;;
34491;SDS011;20737;49.908;8.126;2022-08-03T03:40:52;3.33;;;2.63;;
34491;SDS011;20737;49.908;8.126;2022-08-03T03:43:19;6.30;;;3.05;;
34491;SDS011;20737;49.908;8.126;2022-08-03T03:45:49;2.72;;;2.53;;
34491;SDS011;20737;49.908;8.126;2022-08-03T03:48:17;2.60;;;2.40;;
34491;SDS011;20737;49.908;8.126;2022-08-03T03:50:44;5.03;;;2.70;;
34491;SDS011;20737;49.908;8.126;2022-08-03T03:53:14;3.00;;;2.65;;
34491;SDS011;20737;49.908;8.126;2022-08-03T03:55:41;3.88;;;3.58;;
34491;SDS011;20737;49.908;8.126;2022-08-03T03:58:08;2.50;;;2.30;;
34491;SDS011;20737;49.908;8.126;2022-08-03T04:00:35;2.85;;;2.53;;
34491;SDS011;20737;49.908;8.126;2022-08-03T04:03:03;4.90;;;2.53;;
34491;SDS011;20737;49.908;8.126;2022-08-03T04:05:29;3.53;;;2.88;;
34491;SDS011;20737;49.908;8.126;2022-08-03T04:08:15;5.03;;;2.83;;
34491;SDS011;20737;49.908;8.126;2022-08-03T04:11:02;3.90;;;2.72;;
34491;SDS011;20737;49.908;8.126;2022-08-03T04:13:36;4.18;;;2.90;;
34491;SDS011;20737;49.908;8.126;2022-08-03T04:16:06;3.88;;;3.03;;
34491;SDS011;20737;49.908;8.126;2022-08-03T04:18:37;3.97;;;2.58;;
34491;SDS011;20737;49.908;8.126;2022-08-03T04:21:07;3.00;;;2.70;;
34491;SDS011;20737;49.908;8.126;2022-08-03T04:23:36;3.10;;;2.78;;
34491;SDS011;20737;49.908;8.126;2022-08-03T04:26:06;4.90;;;3.10;;
34491;SDS011;20737;49.908;8.126;2022-08-03T04:28:36;5.90;;;2.80;;
34491;SDS011;20737;49.908;8.126;2022-08-03T04:31:04;4.40;;;2.90;;
34491;SDS011;20737;49.908;8.126;2022-08-03T04:33:32;5.10;;;2.78;;
34491;SDS011;20737;49.908;8.126;2022-08-03T04:36:03;3.85;;;2.63;;
34491;SDS011;20737;49.908;8.126;2022-08-03T04:38:33;3.60;;;3.10;;
34491;SDS011;20737;49.908;8.126;2022-08-03T04:41:03;6.75;;;2.90;;
34491;SDS011;20737;49.908;8.126;2022-08-03T04:43:31;3.97;;;2.75;;
34491;SDS011;20737;49.908;8.126;2022-08-03T04:45:59;5.90;;;3.35;;
34491;SDS011;20737;49.908;8.126;2022-08-03T04:48:27;4.60;;;3.10;;
34491;SDS011;20737;49.908;8.126;2022-08-03T04:50:54;3.60;;;3.30;;
34491;SDS011;20737;49.908;8.126;2022-08-03T04:53:22;4.80;;;2.88;;
34491;SDS011;20737;49.908;8.126;2022-08-03T04:55:49;3.88;;;2.92;;
34491;SDS011;20737;49.908;8.126;2022-08-03T04:58:16;3.80;;;2.72;;
34491;SDS011;20737;49.908;8.126;2022-08-03T05:00:43;5.35;;;2.85;;
34491;SDS011;20737;49.908;8.126;2022-08-03T05:03:09;4.75;;;3.10;;
34491;SDS011;20737;49.908;8.126;2022-08-03T05:05:36;6.53;;;3.20;;
34491;SDS011;20737;49.908;8.126;2022-08-03T05:08:03;5.05;;;3.33;;
34491;SDS011;20737;49.908;8.126;2022-08-03T05:10:31;5.55;;;3.72;;
34491;SDS011;20737;49.908;8.126;2022-08-03T05:12:58;4.90;;;2.83;;
34491;SDS011;20737;49.908;8.126;2022-08-03T05:15:25;8.85;;;3.03;;
34491;SDS011;20737;49.908;8.126;2022-08-03T05:17:52;3.70;;;2.92;;
34491;SDS011;20737;49.908;8.126;2022-08-03T05:20:19;8.45;;;2.80;;
34491;SDS011;20737;49.908;8.126;2022-08-03T05:22:46;9.10;;;3.30;;
34491;SDS011;20737;49.908;8.126;2022-08-03T05:25:12;4.32;;;3.47;;
34491;SDS011;20737;49.908;8.126;2022-08-03T05:27:41;4.13;;;3.38;;
34491;SDS011;20737;49.908;8.126;2022-08-03T05:30:08;8.23;;;3.90;;
34491;SDS011;20737;49.908;8.126;2022-08-03T05:32:35;8.27;;;3.60;;
34491;SDS011;20737;49.908;8.126;2022-08-03T05:35:03;6.28;;;3.03;;
34491;SDS011;20737;49.908;8.126;2022-08-03T05:37:30;6.43;;;2.88;;
34491;SDS011;20737;49.908;8.126;2022-08-03T05:39:57;8.63;;;4.07;;
34491;SDS011;20737;49.908;8.126;2022-08-03T05:42:24;5.75;;;3.33;;
34491;SDS011;20737;49.908;8.126;2022-08-03T05:44:52;3.03;;;2.78;;
34491;SDS011;20737;49.908;8.126;2022-08-03T05:47:19;4.18;;;3.20;;
34491;SDS011;20737;49.908;8.126;2022-08-03T05:49:46;4.40;;;3.08;;
34491;SDS011;20737;49.908;8.126;2022-08-03T05:52:12;7.30;;;3.38;;
34491;SDS011;20737;49.908;8.126;2022-08-03T05:54:39;3.80;;;3.38;;
34491;SDS011;20737;49.908;8.126;2022-08-03T05:57:06;5.15;;;3.22;;
34491;SDS011;20737;49.908;8.126;2022-08-03T05:59:33;4.63;;;3.42;;
34491;SDS011;20737;49.908;8.126;2022-08-03T06:02:01;4.75;;;3.15;;
34491;SDS011;20737;49.908;8.126;2022-08-03T06:04:28;3.38;;;2.72;;
34491;SDS011;20737;49.908;8.126;2022-08-03T06:06:54;9.55;;;3.45;;
34491;SDS011;20737;49.908;8.126;2022-08-03T06:09:21;8.18;;;3.38;;
34491;SDS011;20737;49.908;8.126;2022-08-03T06:11:48;8.07;;;3.50;;
34491;SDS011;20737;49.908;8.126;2022-08-03T06:14:15;4.03;;;3.00;;
34491;SDS011;20737;49.908;8.126;2022-08-03T06:16:42;7.00;;;3.55;;
34491;SDS011;20737;49.908;8.126;2022-08-03T06:19:10;9.55;;;3.28;;
34491;SDS011;20737;49.908;8.126;2022-08-03T06:21:37;7.63;;;3.25;;
34491;SDS011;20737;49.908;8.126;2022-08-03T06:24:03;3.95;;;2.83;;
34491;SDS011;20737;49.908;8.126;2022-08-03T06:26:31;8.13;;;3.42;;
34491;SDS011;20737;49.908;8.126;2022-08-03T06:28:58;3.95;;;2.53;;
34491;SDS011;20737;49.908;8.126;2022-08-03T06:31:25;7.20;;;2.95;;
34491;SDS011;20737;49.908;8.126;2022-08-03T06:33:53;4.03;;;2.95;;
34491;SDS011;20737;49.908;8.126;2022-08-03T06:36:22;4.93;;;3.08;;
34491;SDS011;20737;49.908;8.126;2022-08-03T06:38:50;5.07;;;2.80;;
34491;SDS011;20737;49.908;8.126;2022-08-03T06:41:16;10.68;;;3.53;;
34491;SDS011;20737;49.908;8.126;2022-08-03T06:43:43;5.57;;;2.85;;
34491;SDS011;20737;49.908;8.126;2022-08-03T06:46:10;3.47;;;2.35;;
34491;SDS011;20737;49.908;8.126;2022-08-03T06:48:37;4.43;;;2.60;;
34491;SDS011;20737;49.908;8.126;2022-08-03T06:51:04;4.03;;;2.45;;
34491;SDS011;20737;49.908;8.126;2022-08-03T06:53:32;2.55;;;2.35;;
34491;SDS011;20737;49.908;8.126;2022-08-03T06:55:59;6.38;;;2.45;;
34491;SDS011;20737;49.908;8.126;2022-08-03T06:58:26;3.42;;;2.90;;
34491;SDS011;20737;49.908;8.126;2022-08-03T07:00:52;4.25;;;2.70;;
34491;SDS011;20737;49.908;8.126;2022-08-03T07:03:19;5.50;;;2.67;;
34491;SDS011;20737;49.908;8.126;2022-08-03T07:05:46;4.50;;;2.90;;
34491;SDS011;20737;49.908;8.126;2022-08-03T07:08:13;3.15;;;2.60;;
34491;SDS011;20737;49.908;8.126;2022-08-03T07:10:42;3.38;;;2.92;;
34491;SDS011;20737;49.908;8.126;2022-08-03T07:13:09;4.40;;;3.00;;
34491;SDS011;20737;49.908;8.126;2022-08-03T07:15:36;8.10;;;3.00;;
34491;SDS011;20737;49.908;8.126;2022-08-03T07:18:02;4.05;;;2.67;;
34491;SDS011;20737;49.908;8.126;2022-08-03T07:20:30;3.65;;;2.67;;
34491;SDS011;20737;49.908;8.126;2022-08-03T07:22:57;4.25;;;2.70;;
34491;SDS011;20737;49.908;8.126;2022-08-03T07:25:24;4.75;;;2.50;;
34491;SDS011;20737;49.908;8.126;2022-08-03T07:27:52;5.38;;;2.70;;
34491;SDS011;20737;49.908;8.126;2022-08-03T07:30:19;2.67;;;2.20;;
34491;SDS011;20737;49.908;8.126;2022-08-03T07:32:46;4.95;;;2.38;;
34491;SDS011;20737;49.908;8.126;2022-08-03T07:35:12;4.25;;;2.58;;
34491;SDS011;20737;49.908;8.126;2022-08-03T07:37:39;6.03;;;2.85;;
34491;SDS011;20737;49.908;8.126;2022-08-03T07:40:06;3.83;;;2.80;;
34491;SDS011;20737;49.908;8.126;2022-08-03T07:42:33;3.22;;;2.60;;
34491;SDS011;20737;49.908;8.126;2022-08-03T07:45:02;3.95;;;2.78;;
34491;SDS011;20737;49.908;8.126;2022-08-03T07:47:29;3.78;;;2.65;;
34491;SDS011;20737;49.908;8.126;2022-08-03T07:49:57;4.07;;;2.75;;
34491;SDS011;20737;49.908;8.126;2022-08-03T07:52:23;2.90;;;2.50;;
34491;SDS011;20737;49.908;8.126;2022-08-03T07:55:08;3.70;;;2.80;;
34491;SDS011;20737;49.908;8.126;2022-08-03T07:57:35;6.65;;;2.50;;
34491;SDS011;20737;49.908;8.126;2022-08-03T08:00:04;3.28;;;2.45;;
34491;SDS011;20737;49.908;8.126;2022-08-03T08:02:37;3.28;;;2.80;;
34491;SDS011;20737;49.908;8.126;2022-08-03T08:05:04;4.70;;;2.55;;
34491;SDS011;20737;49.908;8.126;2022-08-03T08:07:31;4.03;;;2.47;;
34491;SDS011;20737;49.908;8.126;2022-08-03T08:09:59;5.63;;;2.70;;
34491;SDS011;20737;49.908;8.126;2022-08-03T08:12:25;3.70;;;2.53;;
34491;SDS011;20737;49.908;8.126;2022-08-03T08:14:53;2.78;;;2.33;;
34491;SDS011;20737;49.908;8.126;2022-08-03T08:17:21;3.45;;;2.33;;
34491;SDS011;20737;49.908;8.126;2022-08-03T08:19:48;2.63;;;2.42;;
34491;SDS011;20737;49.908;8.126;2022-08-03T08:22:15;5.80;;;2.40;;
34491;SDS011;20737;49.908;8.126;2022-08-03T08:24:42;5.03;;;2.50;;
34491;SDS011;20737;49.908;8.126;2022-08-03T08:27:09;4.13;;;2.60;;
34491;SDS011;20737;49.908;8.126;2022-08-03T08:29:36;4.63;;;2.53;;
34491;SDS011;20737;49.908;8.126;2022-08-03T08:32:03;3.05;;;2.55;;
34491;SDS011;20737;49.908;8.126;2022-08-03T08:34:31;3.33;;;2.20;;
34491;SDS011;20737;49.908;8.126;2022-08-03T08:36:58;5.35;;;2.45;;
34491;SDS011;20737;49.908;8.126;2022-08-03T08:39:26;6.30;;;2.60;;
34491;SDS011;20737;49.908;8.126;2022-08-03T08:41:52;3.55;;;2.25;;
34491;SDS011;20737;49.908;8.126;2022-08-03T08:44:19;4.28;;;2.40;;
34491;SDS011;20737;49.908;8.126;2022-08-03T08:46:46;3.38;;;2.30;;
34491;SDS011;20737;49.908;8.126;2022-08-03T08:49:14;3.22;;;2.38;;
34491;SDS011;20737;49.908;8.126;2022-08-03T08:51:47;2.35;;;2.05;;
34491;SDS011;20737;49.908;8.126;2022-08-03T08:54:16;4.10;;;2.05;;
34491;SDS011;20737;49.908;8.126;2022-08-03T08:56:45;2.80;;;2.33;;
34491;SDS011;20737;49.908;8.126;2022-08-03T08:59:14;3.47;;;2.30;;
34491;SDS011;20737;49.908;8.126;2022-08-03T09:01:41;3.05;;;2.00;;
34491;SDS011;20737;49.908;8.126;2022-08-03T09:04:08;3.53;;;2.20;;
34491;SDS011;20737;49.908;8.126;2022-08-03T09:06:35;2.90;;;2.20;;
34491;SDS011;20737;49.908;8.126;2022-08-03T09:09:03;3.72;;;2.20;;
34491;SDS011;20737;49.908;8.126;2022-08-03T09:11:31;4.38;;;2.50;;
34491;SDS011;20737;49.908;8.126;2022-08-03T09:13:59;2.60;;;2.40;;
34491;SDS011;20737;49.908;8.126;2022-08-03T09:16:26;2.90;;;2.13;;
34491;SDS011;20737;49.908;8.126;2022-08-03T09:18:53;6.28;;;2.35;;
34491;SDS011;20737;49.908;8.126;2022-08-03T09:21:21;2.78;;;2.45;;
34491;SDS011;20737;49.908;8.126;2022-08-03T09:23:49;3.53;;;2.50;;
34491;SDS011;20737;49.908;8.126;2022-08-03T09:26:23;2.70;;;2.50;;
34491;SDS011;20737;49.908;8.126;2022-08-03T09:28:54;2.78;;;2.50;;
34491;SDS011;20737;49.908;8.126;2022-08-03T09:31:32;2.40;;;2.20;;
34491;SDS011;20737;49.908;8.126;2022-08-03T09:34:01;2.22;;;2.00;;
34491;SDS011;20737;49.908;8.126;2022-08-03T09:36:33;6.03;;;2.40;;
34491;SDS011;20737;49.908;8.126;2022-08-03T09:39:05;2.70;;;2.50;;
34491;SDS011;20737;49.908;8.126;2022-08-03T09:41:36;3.90;;;2.13;;
34491;SDS011;20737;49.908;8.126;2022-08-03T09:44:03;2.53;;;2.33;;
34491;SDS011;20737;49.908;8.126;2022-08-03T09:46:31;9.52;;;2.45;;
34491;SDS011;20737;49.908;8.126;2022-08-03T09:49:12;2.60;;;2.40;;
34491;SDS011;20737;49.908;8.126;2022-08-03T09:51:39;2.55;;;2.20;;
34491;SDS011;20737;49.908;8.126;2022-08-03T09:54:06;2.20;;;2.10;;
34491;SDS011;20737;49.908;8.126;2022-08-03T09:56:39;3.03;;;2.78;;
34491;SDS011;20737;49.908;8.126;2022-08-03T09:59:06;7.20;;;2.85;;
34491;SDS011;20737;49.908;8.126;2022-08-03T10:01:34;2.60;;;2.40;;
34491;SDS011;20737;49.908;8.126;2022-08-03T10:04:03;2.88;;;2.45;;
34491;SDS011;20737;49.908;8.126;2022-08-03T10:06:30;2.80;;;2.22;;
34491;SDS011;20737;49.908;8.126;2022-08-03T10:09:04;2.63;;;2.42;;
34491;SDS011;20737;49.908;8.126;2022-08-03T10:11:32;2.58;;;2.38;;
34491;SDS011;20737;49.908;8.126;2022-08-03T10:14:02;2.78;;;2.50;;
34491;SDS011;20737;49.908;8.126;2022-08-03T10:16:32;7.28;;;2.60;;
34491;SDS011;20737;49.908;8.126;2022-08-03T10:19:00;2.85;;;2.40;;
34491;SDS011;20737;49.908;8.126;2022-08-03T10:21:29;2.50;;;2.30;;
34491;SDS011;20737;49.908;8.126;2022-08-03T10:23:58;2.60;;;2.40;;
34491;SDS011;20737;49.908;8.126;2022-08-03T10:26:30;3.20;;;2.50;;
34491;SDS011;20737;49.908;8.126;2022-08-03T10:28:58;3.63;;;2.45;;
34491;SDS011;20737;49.908;8.126;2022-08-03T10:31:31;2.97;;;2.40;;
34491;SDS011;20737;49.908;8.126;2022-08-03T10:34:03;2.33;;;2.10;;
34491;SDS011;20737;49.908;8.126;2022-08-03T10:36:32;3.65;;;2.47;;
34491;SDS011;20737;49.908;8.126;2022-08-03T10:39:00;2.38;;;2.22;;
34491;SDS011;20737;49.908;8.126;2022-08-03T10:41:30;2.50;;;2.30;;
34491;SDS011;20737;49.908;8.126;2022-08-03T10:44:00;2.63;;;2.42;;
34491;SDS011;20737;49.908;8.126;2022-08-03T10:46:30;2.93;;;2.23;;
34491;SDS011;20737;49.908;8.126;2022-08-03T10:49:00;2.30;;;2.10;;
34491;SDS011;20737;49.908;8.126;2022-08-03T10:51:28;2.45;;;2.25;;
34491;SDS011;20737;49.908;8.126;2022-08-03T10:53:56;2.25;;;2.05;;
34491;SDS011;20737;49.908;8.126;2022-08-03T10:56:38;3.38;;;2.38;;
34491;SDS011;20737;49.908;8.126;2022-08-03T11:05:33;3.10;;;2.22;;
34491;SDS011;20737;49.908;8.126;2022-08-03T11:11:00;2.20;;;2.10;;
34491;SDS011;20737;49.908;8.126;2022-08-03T11:13:29;2.30;;;2.20;;
34491;SDS011;20737;49.908;8.126;2022-08-03T11:15:59;2.78;;;2.10;;
34491;SDS011;20737;49.908;8.126;2022-08-03T11:18:29;3.10;;;2.20;;
34491;SDS011;20737;49.908;8.126;2022-08-03T11:20:57;5.78;;;2.30;;
34491;SDS011;20737;49.908;8.126;2022-08-03T11:23:44;5.00;;;2.17;;
34491;SDS011;20737;49.908;8.126;2022-08-03T11:26:14;2.97;;;1.98;;
34491;SDS011;20737;49.908;8.126;2022-08-03T11:28:42;2.30;;;1.92;;
34491;SDS011;20737;49.908;8.126;2022-08-03T11:34:13;1.95;;;1.85;;
34491;SDS011;20737;49.908;8.126;2022-08-03T11:39:45;2.65;;;2.03;;
34491;SDS011;20737;49.908;8.126;2022-08-03T11:45:08;2.83;;;2.25;;
34491;SDS011;20737;49.908;8.126;2022-08-03T11:47:36;3.22;;;2.17;;
34491;SDS011;20737;49.908;8.126;2022-08-03T11:50:06;2.78;;;1.90;;
34491;SDS011;20737;49.908;8.126;2022-08-03T11:52:34;4.20;;;2.05;;
34491;SDS011;20737;49.908;8.126;2022-08-03T11:57:49;2.40;;;2.20;;
34491;SDS011;20737;49.908;8.126;2022-08-03T12:00:20;3.20;;;1.90;;
34491;SDS011;20737;49.908;8.126;2022-08-03T12:02:55;3.22;;;2.15;;
34491;SDS011;20737;49.908;8.126;2022-08-03T12:05:34;2.17;;;2.00;;
34491;SDS011;20737;49.908;8.126;2022-08-03T12:08:02;1.80;;;1.70;;
34491;SDS011;20737;49.908;8.126;2022-08-03T12:10:29;2.22;;;2.03;;
34491;SDS011;20737;49.908;8.126;2022-08-03T12:12:57;2.42;;;2.10;;
34491;SDS011;20737;49.908;8.126;2022-08-03T12:15:25;2.72;;;2.00;;
34491;SDS011;20737;49.908;8.126;2022-08-03T12:17:52;1.92;;;1.73;;
34491;SDS011;20737;49.908;8.126;2022-08-03T12:20:20;2.13;;;1.92;;
34491;SDS011;20737;49.908;8.126;2022-08-03T12:22:49;2.20;;;1.90;;
34491;SDS011;20737;49.908;8.126;2022-08-03T12:25:20;1.83;;;1.73;;
34491;SDS011;20737;49.908;8.126;2022-08-03T12:27:48;1.83;;;1.73;;
34491;SDS011;20737;49.908;8.126;2022-08-03T12:30:15;2.03;;;1.92;;
34491;SDS011;20737;49.908;8.126;2022-08-03T12:32:42;1.85;;;1.75;;
34491;SDS011;20737;49.908;8.126;2022-08-03T12:35:09;2.10;;;1.90;;
34491;SDS011;20737;49.908;8.126;2022-08-03T12:37:47;2.17;;;1.98;;
34491;SDS011;20737;49.908;8.126;2022-08-03T12:40:15;2.20;;;2.00;;
34491;SDS011;20737;49.908;8.126;2022-08-03T12:42:50;2.75;;;2.10;;
34491;SDS011;20737;49.908;8.126;2022-08-03T12:45:17;2.05;;;1.95;;
34491;SDS011;20737;49.908;8.126;2022-08-03T12:47:49;1.95;;;1.83;;
34491;SDS011;20737;49.908;8.126;2022-08-03T12:50:24;2.03;;;1.85;;
34491;SDS011;20737;49.908;8.126;2022-08-03T12:52:52;1.73;;;1.63;;
34491;SDS011;20737;49.908;8.126;2022-08-03T12:55:21;1.90;;;1.80;;
34491;SDS011;20737;49.908;8.126;2022-08-03T12:57:49;2.53;;;1.88;;
34491;SDS011;20737;49.908;8.126;2022-08-03T13:00:16;1.85;;;1.75;;
34491;SDS011;20737;49.908;8.126;2022-08-03T13:02:44;1.95;;;1.70;;
34491;SDS011;20737;49.908;8.126;2022-08-03T13:05:11;3.05;;;1.77;;
34491;SDS011;20737;49.908;8.126;2022-08-03T13:07:39;2.03;;;1.92;;
34491;SDS011;20737;49.908;8.126;2022-08-03T13:10:07;2.03;;;1.83;;
34491;SDS011;20737;49.908;8.126;2022-08-03T13:12:45;1.92;;;1.60;;
34491;SDS011;20737;49.908;8.126;2022-08-03T13:15:13;2.25;;;2.00;;
34491;SDS011;20737;49.908;8.126;2022-08-03T13:17:40;3.05;;;1.77;;
34491;SDS011;20737;49.908;8.126;2022-08-03T13:20:07;3.50;;;2.03;;
34491;SDS011;20737;49.908;8.126;2022-08-03T13:22:34;2.10;;;1.70;;
34491;SDS011;20737;49.908;8.126;2022-08-03T13:25:01;2.35;;;1.85;;
34491;SDS011;20737;49.908;8.126;2022-08-03T13:27:29;2.10;;;1.90;;
34491;SDS011;20737;49.908;8.126;2022-08-03T13:29:57;2.13;;;1.75;;
34491;SDS011;20737;49.908;8.126;2022-08-03T13:32:24;2.30;;;1.98;;
34491;SDS011;20737;49.908;8.126;2022-08-03T13:34:51;2.03;;;1.92;;
34491;SDS011;20737;49.908;8.126;2022-08-03T13:37:18;2.10;;;1.90;;
34491;SDS011;20737;49.908;8.126;2022-08-03T13:39:46;2.28;;;1.77;;
34491;SDS011;20737;49.908;8.126;2022-08-03T13:42:12;1.85;;;1.50;;
34491;SDS011;20737;49.908;8.126;2022-08-03T13:44:39;4.65;;;1.50;;
34491;SDS011;20737;49.908;8.126;2022-08-03T13:47:07;1.58;;;1.48;;
34491;SDS011;20737;49.908;8.126;2022-08-03T13:49:34;1.90;;;1.67;;
34491;SDS011;20737;49.908;8.126;2022-08-03T13:52:01;2.20;;;1.60;;
34491;SDS011;20737;49.908;8.126;2022-08-03T13:54:28;1.75;;;1.63;;
34491;SDS011;20737;49.908;8.126;2022-08-03T13:56:55;1.48;;;1.38;;
34491;SDS011;20737;49.908;8.126;2022-08-03T13:59:22;2.65;;;1.90;;
34491;SDS011;20737;49.908;8.126;2022-08-03T14:01:50;1.65;;;1.55;;
34491;SDS011;20737;49.908;8.126;2022-08-03T14:04:19;1.63;;;1.52;;
34491;SDS011;20737;49.908;8.126;2022-08-03T14:06:46;3.55;;;1.35;;
34491;SDS011;20737;49.908;8.126;2022-08-03T14:09:13;4.32;;;2.00;;
34491;SDS011;20737;49.908;8.126;2022-08-03T14:11:41;4.68;;;1.88;;
34491;SDS011;20737;49.908;8.126;2022-08-03T14:14:08;2.28;;;1.60;;
34491;SDS011;20737;49.908;8.126;2022-08-03T14:16:35;1.65;;;1.55;;
34491;SDS011;20737;49.908;8.126;2022-08-03T14:19:03;2.85;;;1.65;;
34491;SDS011;20737;49.908;8.126;2022-08-03T14:21:32;4.13;;;1.63;;
34491;SDS011;20737;49.908;8.126;2022-08-03T14:23:59;2.88;;;1.70;;
34491;SDS011;20737;49.908;8.126;2022-08-03T14:26:26;2.38;;;1.73;;
34491;SDS011;20737;49.908;8.126;2022-08-03T14:28:54;1.88;;;1.67;;
34491;SDS011;20737;49.908;8.126;2022-08-03T14:31:21;2.10;;;1.80;;
34491;SDS011;20737;49.908;8.126;2022-08-03T14:33:48;1.90;;;1.73;;
34491;SDS011;20737;49.908;8.126;2022-08-03T14:36:15;2.70;;;1.88;;
34491;SDS011;20737;49.908;8.126;2022-08-03T14:38:43;4.47;;;1.80;;
34491;SDS011;20737;49.908;8.126;2022-08-03T14:41:10;1.70;;;1.45;;
34491;SDS011;20737;49.908;8.126;2022-08-03T14:43:37;1.70;;;1.60;;
34491;SDS011;20737;49.908;8.126;2022-08-03T14:46:04;2.72;;;1.88;;
34491;SDS011;20737;49.908;8.126;2022-08-03T14:48:30;1.70;;;1.60;;
34491;SDS011;20737;49.908;8.126;2022-08-03T14:50:57;2.75;;;1.73;;
34491;SDS011;20737;49.908;8.126;2022-08-03T14:53:24;3.13;;;1.60;;
34491;SDS011;20737;49.908;8.126;2022-08-03T14:55:54;4.13;;;1.90;;
34491;SDS011;20737;49.908;8.126;2022-08-03T14:58:21;1.80;;;1.70;;
34491;SDS011;20737;49.908;8.126;2022-08-03T15:00:51;1.83;;;1.73;;
34491;SDS011;20737;49.908;8.126;2022-08-03T15:03:19;1.80;;;1.70;;
34491;SDS011;20737;49.908;8.126;2022-08-03T15:05:47;4.43;;;1.75;;
34491;SDS011;20737;49.908;8.126;2022-08-03T15:08:14;2.10;;;1.90;;
34491;SDS011;20737;49.908;8.126;2022-08-03T15:10:41;1.90;;;1.67;;
34491;SDS011;20737;49.908;8.126;2022-08-03T15:13:09;3.75;;;1.65;;
34491;SDS011;20737;49.908;8.126;2022-08-03T15:15:36;1.60;;;1.50;;
34491;SDS011;20737;49.908;8.126;2022-08-03T15:18:02;2.00;;;1.80;;
34491;SDS011;20737;49.908;8.126;2022-08-03T15:20:29;2.17;;;1.60;;